LJMB/MBX METAR and TAF weather

Enter ICAO airport designator
Station Type Date Time Source
LJMB METAR 2021/01/17 19:30 UTC NOAA

LJMB 171930Z 15004KT 8000 -SN OVC015 M02/M04 Q1021


Station Type Date Time Source
LJMB Decoded METAR 2021/01/17 19:30 UTC NOAA

Maribor / Slivnica, Slovenia (LJMB) 46-29N 015-41E 265M
Jan 17, 2021 - 02:30 PM EST / 2021.01.17 1930 UTC
Wind: from the SSE (150 degrees) at 5 MPH (4 KT):0
Visibility: 4 mile(s):0
Sky conditions: overcast
Weather: light snow
Temperature: 28 F (-2 C)
Windchill: 23 F (-5 C):1
Dew Point: 24 F (-4 C)
Relative Humidity: 86%
Pressure (altimeter): 30.15 in. Hg (1021 hPa)
ob: LJMB 171930Z 15004KT 8000 -SN OVC015 M02/M04 Q1021
cycle: 19

Station Type Date Time Source
LJMB TAF 2021/01/17 18:06 UTC NOAA

TAF LJMB 171700Z 1718/1818 VRB02KT 9999 OVC025 PROB40
TEMPO 1718/1801 5000 -SN OVC015
TEMPO 1801/1809 5000 BR OVC010

Example: see airport list